Time;durP1;ratioP1;P1;durP2;ratioP2;P2;SDS_P1;SDS_P2;PMS_P1;PMS_P2;Temp;Humidity;BMP_temperature;BMP_pressure;BME280_temperature;BME280_humidity;BME280_pressure;Samples;Min_cycle;Max_cycle;Signal;HPM_P1;HPM_P2
2022/04/03 00:00:31;;;;;;;4.60;2.65;;;-0.10;42.30;;;;;;5034539;28;20680;-53
2022/04/03 00:02:59;;;;;;;4.30;2.80;;;-0.10;42.40;;;;;;5034365;28;20207;-54
2022/04/03 00:05:26;;;;;;;3.58;3.28;;;-0.10;42.60;;;;;;5034838;28;20263;-54
2022/04/03 00:07:54;;;;;;;6.97;3.45;;;-0.20;42.70;;;;;;5035696;28;20205;-53
2022/04/03 00:10:21;;;;;;;5.45;3.10;;;-0.20;42.80;;;;;;5033730;28;20273;-53
2022/04/03 00:12:49;;;;;;;4.32;3.30;;;-0.20;43.00;;;;;;5033379;28;20205;-55
2022/04/03 00:15:18;;;;;;;3.70;3.00;;;-0.20;43.20;;;;;;5033673;28;20232;-54
2022/04/03 00:17:46;;;;;;;4.03;3.35;;;-0.30;43.30;;;;;;5033938;28;20701;-53
2022/04/03 00:20:14;;;;;;;7.70;4.10;;;-0.20;43.60;;;;;;5034564;28;20205;-53
2022/04/03 00:22:43;;;;;;;6.43;4.05;;;-0.30;43.70;;;;;;5034671;28;20208;-53
2022/04/03 00:25:11;;;;;;;5.68;4.00;;;-0.30;43.90;;;;;;5036229;28;20222;-54
2022/04/03 00:27:39;;;;;;;6.15;4.22;;;-0.30;44.30;;;;;;5037837;28;20575;-54
2022/04/03 00:30:06;;;;;;;8.13;4.97;;;-0.40;44.50;;;;;;5037613;28;20204;-53
2022/04/03 00:32:36;;;;;;;7.25;4.80;;;-0.40;44.90;;;;;;5037222;28;20209;-53
2022/04/03 00:35:03;;;;;;;7.80;5.35;;;-0.40;45.10;;;;;;5036848;28;20228;-53
2022/04/03 00:37:30;;;;;;;10.68;6.82;;;-0.40;45.30;;;;;;5036899;28;20205;-53
2022/04/03 00:39:57;;;;;;;9.25;6.35;;;-0.50;45.40;;;;;;5036692;28;20212;-55
2022/04/03 00:42:25;;;;;;;9.77;6.05;;;-0.50;45.60;;;;;;5036941;28;20615;-53
2022/04/03 00:44:52;;;;;;;6.40;4.90;;;-0.50;46.30;;;;;;5036669;28;20217;-54
2022/04/03 00:47:21;;;;;;;5.38;4.53;;;-0.50;46.00;;;;;;5036862;28;20205;-54
2022/04/03 00:49:49;;;;;;;6.03;4.88;;;-0.60;46.10;;;;;;5036372;28;20612;-54
2022/04/03 00:52:17;;;;;;;7.03;4.90;;;-0.60;46.30;;;;;;5036436;28;20207;-54
2022/04/03 00:54:44;;;;;;;7.32;4.85;;;-0.60;46.70;;;;;;5036560;28;20227;-54
2022/04/03 00:57:12;;;;;;;7.22;4.43;;;-0.60;46.80;;;;;;5036352;28;20244;-53
2022/04/03 00:59:42;;;;;;;6.28;5.38;;;-0.70;46.90;;;;;;5036292;28;20232;-53
2022/04/03 01:02:09;;;;;;;10.13;6.50;;;-0.70;47.00;;;;;;5036585;28;20615;-53
2022/04/03 01:04:38;;;;;;;9.80;6.43;;;-0.70;47.10;;;;;;5036230;28;20232;-53
2022/04/03 01:07:07;;;;;;;8.75;6.18;;;-0.70;47.40;;;;;;5036506;28;20679;-54
2022/04/03 01:09:34;;;;;;;10.07;5.88;;;-0.70;47.60;;;;;;5037019;28;20200;-52
2022/04/03 01:12:01;;;;;;;7.20;5.05;;;-0.70;47.80;;;;;;5036943;28;20673;-53
2022/04/03 01:14:32;;;;;;;7.15;5.53;;;-0.80;47.90;;;;;;5036421;28;20224;-54
2022/04/03 01:16:59;;;;;;;6.20;5.10;;;-0.80;48.10;;;;;;5036333;28;20256;-53
2022/04/03 01:19:26;;;;;;;5.53;4.32;;;-0.80;48.30;;;;;;5036397;28;20215;-54
2022/04/03 01:21:53;;;;;;;5.38;4.35;;;-0.80;48.40;;;;;;5037062;28;20209;-54
2022/04/03 01:24:23;;;;;;;9.18;4.90;;;-0.90;48.70;;;;;;5035715;28;20731;-52
2022/04/03 01:26:52;;;;;;;6.15;4.05;;;-0.90;48.80;;;;;;5035829;28;20205;-54
2022/04/03 01:29:20;;;;;;;4.93;3.78;;;-0.90;49.10;;;;;;5035956;28;20210;-55
2022/04/03 01:31:47;;;;;;;3.83;3.42;;;-0.90;49.30;;;;;;5035594;28;20225;-53
2022/04/03 01:34:16;;;;;;;5.65;4.00;;;-0.90;49.40;;;;;;5035503;28;20716;-54
2022/04/03 01:36:43;;;;;;;5.90;3.25;;;-0.90;49.70;;;;;;5034904;28;20667;-53
2022/04/03 01:39:11;;;;;;;6.43;3.90;;;-1.00;49.90;;;;;;5035539;28;20696;-54
2022/04/03 01:41:38;;;;;;;4.25;3.42;;;-1.00;50.80;;;;;;5035770;28;20237;-54
2022/04/03 01:44:09;;;;;;;7.53;4.00;;;-1.00;50.50;;;;;;5035806;28;20252;-52
2022/04/03 01:46:37;;;;;;;4.47;3.10;;;-1.00;50.60;;;;;;5035560;28;20188;-53
2022/04/03 01:49:05;;;;;;;5.25;3.25;;;-1.00;50.80;;;;;;5035445;28;20372;-54
2022/04/03 01:51:32;;;;;;;4.05;3.30;;;-1.00;51.10;;;;;;5036374;28;20306;-52
2022/04/03 01:53:59;;;;;;;4.18;3.50;;;-1.00;51.40;;;;;;5037681;28;20269;-54
2022/04/03 01:56:27;;;;;;;4.05;3.42;;;-1.00;51.70;;;;;;5036270;28;20203;-54
2022/04/03 01:58:54;;;;;;;4.97;3.70;;;-1.00;52.00;;;;;;5035634;28;20213;-54
2022/04/03 02:01:23;;;;;;;4.30;3.20;;;-1.00;52.40;;;;;;5036074;28;20219;-53
2022/04/03 02:03:50;;;;;;;4.72;3.03;;;-1.00;52.70;;;;;;5036006;28;20230;-53
2022/04/03 02:06:17;;;;;;;5.35;3.67;;;-1.10;52.80;;;;;;5035669;28;20188;-54
2022/04/03 02:08:45;;;;;;;4.65;4.07;;;-1.10;53.10;;;;;;5035662;28;20204;-53
2022/04/03 02:11:12;;;;;;;3.17;2.88;;;-1.10;53.60;;;;;;5036135;28;20203;-54
2022/04/03 02:13:39;;;;;;;8.93;3.63;;;-1.10;53.90;;;;;;5035882;28;20240;-54
2022/04/03 02:16:06;;;;;;;4.85;3.00;;;-1.10;54.20;;;;;;5036145;28;20216;-53
2022/04/03 02:18:34;;;;;;;3.60;3.22;;;-1.10;54.70;;;;;;5036324;28;20208;-54
2022/04/03 02:21:01;;;;;;;4.80;3.40;;;-1.20;55.00;;;;;;5035530;28;20675;-54
2022/04/03 02:23:28;;;;;;;4.25;3.58;;;-1.20;55.40;;;;;;5035569;28;20218;-54
2022/04/03 02:25:55;;;;;;;4.10;3.70;;;-1.20;55.80;;;;;;5035858;28;20197;-54
2022/04/03 02:28:22;;;;;;;3.47;3.20;;;-1.20;56.30;;;;;;5035129;28;20204;-54
2022/04/03 02:30:50;;;;;;;3.78;3.22;;;-1.20;56.70;;;;;;5034939;28;20210;-54
2022/04/03 02:33:17;;;;;;;3.72;2.85;;;-1.30;57.00;;;;;;5035381;28;20208;-54
2022/04/03 02:35:45;;;;;;;4.18;3.15;;;-1.30;57.40;;;;;;5034715;28;20225;-53
2022/04/03 02:38:15;;;;;;;5.60;3.30;;;-1.20;57.90;;;;;;5035351;28;20207;-53
2022/04/03 02:40:43;;;;;;;3.15;2.63;;;-1.30;58.40;;;;;;5035572;28;20251;-53
2022/04/03 02:43:10;;;;;;;4.80;3.65;;;-1.30;58.90;;;;;;5034997;28;20212;-53
2022/04/03 02:45:37;;;;;;;3.80;3.25;;;-1.30;59.30;;;;;;5034501;28;20728;-54
2022/04/03 02:48:05;;;;;;;4.72;3.47;;;-1.40;59.70;;;;;;5033293;28;20676;-54
2022/04/03 02:50:33;;;;;;;4.32;3.00;;;-1.40;60.30;;;;;;5034478;28;20204;-53
2022/04/03 02:53:03;;;;;;;3.95;3.55;;;-1.50;61.00;;;;;;5034098;28;20672;-54
2022/04/03 02:55:30;;;;;;;3.50;3.20;;;-1.50;61.80;;;;;;5034264;28;20223;-53
2022/04/03 02:57:57;;;;;;;3.80;3.50;;;-1.50;62.40;;;;;;5034697;28;20207;-53
2022/04/03 03:00:24;;;;;;;5.15;3.35;;;-1.60;63.20;;;;;;5034649;28;20210;-53
2022/04/03 03:02:51;;;;;;;8.80;4.00;;;-1.60;63.90;;;;;;5034380;28;20270;-53
2022/04/03 03:05:18;;;;;;;3.47;3.05;;;-1.60;64.60;;;;;;5034259;28;20236;-54
2022/04/03 03:07:46;;;;;;;5.75;3.60;;;-1.60;65.20;;;;;;5036755;28;20214;-53
2022/04/03 03:10:17;;;;;;;6.22;3.90;;;-1.60;65.80;;;;;;5038556;28;20208;-54
2022/04/03 03:12:44;;;;;;;5.75;3.67;;;-1.60;66.50;;;;;;5037975;28;20672;-54
2022/04/03 03:15:12;;;;;;;7.57;4.32;;;-1.60;67.00;;;;;;5036755;28;20235;-53
2022/04/03 03:17:39;;;;;;;3.67;3.38;;;-1.60;67.40;;;;;;5036160;28;20211;-54
2022/04/03 03:20:07;;;;;;;4.35;3.70;;;-1.60;67.90;;;;;;5035481;28;20215;-54
2022/04/03 03:22:35;;;;;;;4.82;4.28;;;-1.60;68.50;;;;;;5034641;28;20205;-52
2022/04/03 03:25:05;;;;;;;4.75;4.15;;;-1.60;69.20;;;;;;5034646;28;20565;-54
2022/04/03 03:27:33;;;;;;;4.75;4.10;;;-1.60;69.90;;;;;;5034087;28;20216;-53
2022/04/03 03:30:01;;;;;;;4.25;3.85;;;-1.60;70.30;;;;;;5033975;28;20560;-54
2022/04/03 03:32:28;;;;;;;5.47;4.28;;;-1.50;71.10;;;;;;5034164;28;20219;-53
2022/04/03 03:34:55;;;;;;;7.40;5.10;;;-1.40;71.30;;;;;;5037672;28;20229;-53
2022/04/03 03:37:22;;;;;;;6.15;4.35;;;-1.40;71.60;;;;;;5038684;28;20200;-55
2022/04/03 03:39:50;;;;;;;5.35;3.90;;;-1.40;71.70;;;;;;5036287;28;20571;-54
2022/04/03 03:42:17;;;;;;;4.93;4.00;;;-1.40;72.30;;;;;;5035626;28;20211;-53
2022/04/03 03:44:45;;;;;;;3.60;3.30;;;-1.30;72.60;;;;;;5034644;28;20313;-54
2022/04/03 03:47:13;;;;;;;5.30;4.15;;;-1.20;73.10;;;;;;5034961;28;20218;-54
2022/04/03 03:49:40;;;;;;;4.43;4.03;;;-1.20;73.10;;;;;;5034599;28;20258;-55
2022/04/03 03:52:07;;;;;;;5.75;4.22;;;-1.10;73.30;;;;;;5034346;28;20203;-54
2022/04/03 03:54:35;;;;;;;4.10;3.65;;;-1.00;73.30;;;;;;5033435;28;20224;-54
2022/04/03 03:57:02;;;;;;;4.35;3.95;;;-1.00;73.30;;;;;;5033359;28;20201;-55
2022/04/03 03:59:29;;;;;;;7.32;4.20;;;-0.90;74.10;;;;;;5034042;28;20251;-54
2022/04/03 04:01:57;;;;;;;4.75;3.70;;;-0.80;73.60;;;;;;5033821;28;20591;-53
2022/04/03 04:04:24;;;;;;;4.50;3.72;;;-0.70;73.50;;;;;;5035751;28;20231;-53
2022/04/03 04:09:33;;;;;;;8.65;4.28;;;-0.60;72.70;;;;;;5114413;27;21107;-52
2022/04/03 04:12:00;;;;;;;5.95;4.60;;;-0.50;72.50;;;;;;5112193;28;20206;-53
2022/04/03 04:14:27;;;;;;;3.72;3.30;;;-0.50;72.20;;;;;;5111791;28;20226;-54
2022/04/03 04:16:54;;;;;;;4.00;3.33;;;-0.40;72.50;;;;;;5111459;28;20209;-54
2022/04/03 04:19:21;;;;;;;4.00;3.38;;;-0.40;72.50;;;;;;5111133;28;20202;-54
2022/04/03 04:21:49;;;;;;;5.15;3.85;;;-0.30;72.40;;;;;;5110926;28;20202;-54
2022/04/03 04:24:16;;;;;;;4.05;3.53;;;-0.30;72.60;;;;;;5110806;28;20228;-54
2022/04/03 04:26:44;;;;;;;3.90;3.38;;;-0.30;72.70;;;;;;5110823;28;20280;-55
2022/04/03 04:29:11;;;;;;;3.83;3.53;;;-0.20;72.60;;;;;;5111127;28;20218;-52
2022/04/03 04:31:38;;;;;;;4.25;3.13;;;-0.20;72.70;;;;;;5111036;28;20205;-53
2022/04/03 04:34:07;;;;;;;4.50;2.97;;;-0.20;73.00;;;;;;5110805;28;20219;-53
2022/04/03 04:36:34;;;;;;;4.05;3.65;;;-0.10;72.70;;;;;;5110820;28;20233;-54
2022/04/03 04:39:01;;;;;;;6.35;3.40;;;-0.10;72.50;;;;;;5110826;28;20209;-54
2022/04/03 04:41:28;;;;;;;4.43;3.50;;;-0.10;72.70;;;;;;5110752;28;20202;-53
2022/04/03 04:43:57;;;;;;;4.40;3.70;;;-0.10;72.90;;;;;;5110776;28;20230;-54
2022/04/03 04:46:24;;;;;;;4.63;4.22;;;-0.10;73.20;;;;;;5110323;28;20213;-53
2022/04/03 04:48:51;;;;;;;4.82;4.38;;;-0.10;73.80;;;;;;5110596;28;20249;-54
2022/04/03 04:51:18;;;;;;;4.38;3.80;;;-0.10;74.10;;;;;;5110187;28;20693;-54
2022/04/03 04:53:45;;;;;;;7.05;5.35;;;-0.10;74.50;;;;;;5110046;28;20714;-53
2022/04/03 04:56:12;;;;;;;5.00;4.50;;;-0.10;75.30;;;;;;5110516;28;20581;-54
2022/04/03 04:58:40;;;;;;;5.97;5.03;;;-0.10;76.10;;;;;;5110299;28;20194;-54
2022/04/03 05:01:08;;;;;;;5.30;4.80;;;-0.10;77.00;;;;;;5110041;28;20605;-53
2022/04/03 05:03:35;;;;;;;6.00;5.03;;;-0.10;78.10;;;;;;5109965;28;20206;-53
2022/04/03 05:06:03;;;;;;;6.45;5.80;;;-0.10;79.60;;;;;;5110058;28;20209;-54
2022/04/03 05:08:30;;;;;;;5.80;5.30;;;-0.10;80.50;;;;;;5110244;28;20233;-53
2022/04/03 05:10:58;;;;;;;5.75;5.28;;;-0.10;81.10;;;;;;5110174;28;20290;-53
2022/04/03 05:13:27;;;;;;;6.47;5.53;;;-0.20;82.10;;;;;;5110183;28;20211;-56
2022/04/03 05:15:55;;;;;;;7.00;6.32;;;-0.20;82.80;;;;;;5109752;28;20213;-53
2022/04/03 05:18:23;;;;;;;6.55;5.25;;;-0.20;83.40;;;;;;5109666;28;20199;-53
2022/04/03 05:20:51;;;;;;;6.40;5.72;;;-0.20;84.10;;;;;;5096387;28;20205;-54
2022/04/03 05:23:18;;;;;;;6.07;5.57;;;-0.20;84.70;;;;;;5096213;28;20202;-54
2022/04/03 05:25:45;;;;;;;6.45;5.80;;;-0.20;85.50;;;;;;5096145;28;20226;-54
2022/04/03 05:28:13;;;;;;;7.60;6.50;;;-0.20;86.00;;;;;;5096063;28;20225;-53
2022/04/03 05:30:40;;;;;;;8.07;6.65;;;-0.20;86.60;;;;;;5097048;28;20214;-54
2022/04/03 05:33:07;;;;;;;7.20;6.60;;;-0.20;87.50;;;;;;5100440;28;20203;-53
2022/04/03 05:35:36;;;;;;;7.10;6.40;;;-0.10;87.60;;;;;;5099909;28;20229;-53
2022/04/03 05:38:03;;;;;;;7.90;7.20;;;-0.10;88.10;;;;;;5097502;28;20205;-53
2022/04/03 05:40:30;;;;;;;7.45;6.25;;;-0.10;88.50;;;;;;5096951;28;20207;-54
2022/04/03 05:42:57;;;;;;;6.78;6.10;;;0.00;88.80;;;;;;5097853;28;20575;-52
2022/04/03 05:45:24;;;;;;;7.70;6.78;;;0.00;89.30;;;;;;5096994;28;20705;-53
2022/04/03 05:47:51;;;;;;;8.68;6.93;;;0.10;89.30;;;;;;5098249;28;20209;-54
2022/04/03 05:50:19;;;;;;;6.25;5.63;;;0.20;89.50;;;;;;5097709;28;20202;-54
2022/04/03 05:52:49;;;;;;;7.80;6.78;;;0.30;90.00;;;;;;5096229;28;20200;-54
2022/04/03 05:55:18;;;;;;;7.15;6.55;;;0.30;89.80;;;;;;5097031;28;20738;-53
2022/04/03 05:57:46;;;;;;;6.75;6.10;;;0.40;90.00;;;;;;5096850;28;20210;-53
2022/04/03 06:00:15;;;;;;;6.35;5.75;;;0.50;90.00;;;;;;5096129;28;20291;-54
2022/04/03 06:02:47;;;;;;;8.80;6.82;;;0.50;90.00;;;;;;5095843;28;20242;-54
2022/04/03 06:05:14;;;;;;;9.77;6.18;;;0.60;90.00;;;;;;5096286;28;20232;-53
2022/04/03 06:07:42;;;;;;;12.07;6.60;;;0.60;90.00;;;;;;5096362;28;20216;-53
2022/04/03 06:10:11;;;;;;;6.85;6.20;;;0.70;90.00;;;;;;5096164;28;20204;-53
2022/04/03 06:12:38;;;;;;;6.38;5.53;;;0.70;89.80;;;;;;5095928;28;20218;-55
2022/04/03 06:15:06;;;;;;;7.07;6.03;;;0.80;89.90;;;;;;5095414;28;20224;-55
2022/04/03 06:17:33;;;;;;;6.75;6.15;;;0.80;89.90;;;;;;5095664;28;20558;-54
2022/04/03 06:20:00;;;;;;;6.78;6.00;;;0.80;89.90;;;;;;5095476;28;20203;-54
2022/04/03 06:22:27;;;;;;;7.25;5.95;;;0.90;89.80;;;;;;5095325;28;20214;-53
2022/04/03 06:24:54;;;;;;;5.95;5.43;;;0.90;89.50;;;;;;5095091;28;20726;-54
2022/04/03 06:27:23;;;;;;;7.13;5.55;;;1.00;89.50;;;;;;5081691;22;20243;-50
2022/04/03 06:29:50;;;;;;;8.27;5.68;;;1.10;89.40;;;;;;5034261;28;20230;-51
2022/04/03 06:32:17;;;;;;;6.70;5.90;;;1.10;89.20;;;;;;5033680;28;20206;-52
2022/04/03 06:34:44;;;;;;;6.57;5.80;;;1.20;89.10;;;;;;5034201;28;20581;-52
2022/04/03 06:37:11;;;;;;;6.53;5.60;;;1.30;89.10;;;;;;5034085;28;20225;-52
2022/04/03 06:39:38;;;;;;;6.40;5.80;;;1.30;88.70;;;;;;5034825;28;20247;-53
2022/04/03 06:42:06;;;;;;;7.68;6.97;;;1.40;88.30;;;;;;5034203;28;20205;-52
2022/04/03 06:44:34;;;;;;;6.47;5.72;;;1.50;88.10;;;;;;5033964;28;20649;-55
2022/04/03 06:47:02;;;;;;;6.90;6.30;;;1.60;87.70;;;;;;5034165;28;20218;-53
2022/04/03 06:49:30;;;;;;;8.70;5.70;;;1.70;87.20;;;;;;5034379;28;20225;-53
2022/04/03 06:51:57;;;;;;;6.60;5.90;;;1.80;86.70;;;;;;5034367;28;20226;-52
2022/04/03 06:54:24;;;;;;;7.05;5.50;;;1.80;86.20;;;;;;5034335;28;20206;-51
2022/04/03 06:56:53;;;;;;;6.10;5.50;;;1.90;85.90;;;;;;5034076;28;20226;-52
2022/04/03 06:59:20;;;;;;;6.60;5.55;;;1.90;85.60;;;;;;5034160;28;20198;-53
2022/04/03 07:01:48;;;;;;;7.22;5.65;;;2.10;85.60;;;;;;5033678;28;20677;-53
2022/04/03 07:04:15;;;;;;;5.85;5.25;;;2.20;85.30;;;;;;5033834;28;20552;-51
2022/04/03 07:06:42;;;;;;;5.47;4.93;;;2.20;84.90;;;;;;5033406;28;20226;-51
2022/04/03 07:09:09;;;;;;;5.40;4.90;;;2.30;84.70;;;;;;5033871;28;20214;-51
2022/04/03 07:11:37;;;;;;;5.30;4.55;;;2.40;84.30;;;;;;5033451;28;20241;-51
2022/04/03 07:14:04;;;;;;;5.90;4.75;;;2.50;83.70;;;;;;5033618;28;20741;-50
2022/04/03 07:16:31;;;;;;;4.03;3.72;;;2.60;83.00;;;;;;5033284;28;20733;-52
2022/04/03 07:19:00;;;;;;;8.05;4.45;;;2.60;82.30;;;;;;5033789;28;20229;-51
2022/04/03 07:21:27;;;;;;;4.80;3.70;;;2.70;81.80;;;;;;5033395;28;20213;-52
2022/04/03 07:23:54;;;;;;;5.35;4.53;;;2.70;81.40;;;;;;5033502;28;20229;-51
2022/04/03 07:26:21;;;;;;;5.22;4.03;;;2.80;81.00;;;;;;5033157;28;20234;-52
2022/04/03 07:28:48;;;;;;;6.53;3.80;;;2.90;80.60;;;;;;5033554;28;20233;-53
2022/04/03 07:31:15;;;;;;;5.55;4.00;;;3.00;80.00;;;;;;5033492;28;20199;-51
2022/04/03 07:33:42;;;;;;;4.72;4.25;;;3.10;79.30;;;;;;5033477;28;20210;-51
2022/04/03 07:36:11;;;;;;;5.25;4.00;;;3.10;78.60;;;;;;5033177;28;20235;-51
2022/04/03 07:38:38;;;;;;;4.75;4.03;;;3.10;78.00;;;;;;5033112;28;20228;-53
2022/04/03 07:41:05;;;;;;;4.78;3.60;;;3.20;77.80;;;;;;5033324;28;20209;-53
2022/04/03 07:43:32;;;;;;;4.00;3.70;;;3.40;77.40;;;;;;5033001;28;20206;-53
2022/04/03 07:45:59;;;;;;;5.43;3.33;;;3.50;76.30;;;;;;5032984;28;20315;-51
2022/04/03 07:48:27;;;;;;;4.43;3.53;;;3.60;75.40;;;;;;5032895;28;20233;-52
2022/04/03 07:50:54;;;;;;;4.75;3.70;;;3.60;74.10;;;;;;5032975;28;20203;-52
2022/04/03 07:53:22;;;;;;;7.68;3.47;;;3.70;73.30;;;;;;5032485;28;20266;-52
2022/04/03 07:55:49;;;;;;;3.58;3.10;;;3.70;72.70;;;;;;5032130;28;20206;-53
2022/04/03 07:58:17;;;;;;;4.00;3.22;;;3.70;72.10;;;;;;5032318;28;20207;-52
2022/04/03 08:00:44;;;;;;;4.70;4.30;;;3.80;71.70;;;;;;5032755;28;20207;-52
2022/04/03 08:03:11;;;;;;;4.38;3.67;;;3.80;71.00;;;;;;5032810;28;20202;-52
2022/04/03 08:05:38;;;;;;;5.60;3.67;;;3.90;70.50;;;;;;5033033;28;20268;-51
2022/04/03 08:08:05;;;;;;;4.82;3.05;;;3.90;70.20;;;;;;5032929;28;20222;-52
2022/04/03 08:10:34;;;;;;;4.25;3.58;;;4.00;70.50;;;;;;5032791;28;20244;-51
2022/04/03 08:13:01;;;;;;;4.78;2.65;;;4.10;69.50;;;;;;5033222;28;20209;-51
2022/04/03 08:15:28;;;;;;;3.70;2.83;;;4.20;68.70;;;;;;5033082;28;20226;-51
2022/04/03 08:17:55;;;;;;;4.30;3.17;;;4.30;67.20;;;;;;5032946;28;20254;-52
2022/04/03 08:20:22;;;;;;;3.53;2.55;;;4.50;66.40;;;;;;5032919;28;20202;-52
2022/04/03 08:22:50;;;;;;;2.80;2.50;;;4.60;64.70;;;;;;5032809;28;20313;-52
2022/04/03 08:25:18;;;;;;;5.43;2.92;;;4.60;62.60;;;;;;5033507;28;20225;-51
2022/04/03 08:27:49;;;;;;;3.25;2.80;;;4.50;61.80;;;;;;5032606;28;20235;-51
2022/04/03 08:30:19;;;;;;;3.17;2.90;;;4.60;61.80;;;;;;5033623;28;20261;-51
2022/04/03 08:32:46;;;;;;;3.17;2.90;;;4.60;61.70;;;;;;5032906;28;20593;-51
2022/04/03 08:35:14;;;;;;;5.78;3.53;;;4.70;62.10;;;;;;5033609;28;20207;-50
2022/04/03 08:37:41;;;;;;;4.35;3.38;;;4.90;62.10;;;;;;5032454;28;20254;-51
2022/04/03 08:40:10;;;;;;;4.90;3.03;;;5.00;61.40;;;;;;5032911;28;20200;-51
2022/04/03 08:42:38;;;;;;;3.45;2.33;;;5.10;61.20;;;;;;5032813;28;20567;-52
2022/04/03 08:45:11;;;;;;;2.92;2.67;;;5.20;61.00;;;;;;5032809;28;20204;-52
2022/04/03 08:47:47;;;;;;;7.40;2.35;;;5.30;60.70;;;;;;5032179;28;20236;-53
2022/04/03 08:50:16;;;;;;;3.05;2.42;;;5.40;60.60;;;;;;5032246;28;20725;-52
2022/04/03 08:52:46;;;;;;;4.63;3.20;;;5.50;60.50;;;;;;5032676;28;20207;-53
2022/04/03 08:55:13;;;;;;;2.50;2.30;;;5.70;60.00;;;;;;5034482;28;20204;-53
2022/04/03 08:57:40;;;;;;;3.42;3.05;;;5.90;59.10;;;;;;5036369;28;20237;-53
2022/04/03 09:00:13;;;;;;;3.10;2.60;;;6.00;58.50;;;;;;5036409;28;20200;-53
2022/04/03 09:02:40;;;;;;;2.17;1.92;;;6.00;58.20;;;;;;5036483;28;20199;-53
2022/04/03 09:05:09;;;;;;;3.65;2.53;;;6.00;57.80;;;;;;5036313;28;20204;-53
2022/04/03 09:07:36;;;;;;;4.50;2.42;;;5.90;57.80;;;;;;5036206;28;20257;-53
2022/04/03 09:10:08;;;;;;;2.63;2.30;;;5.90;58.20;;;;;;5036118;28;20233;-53
2022/04/03 09:12:44;;;;;;;2.60;1.75;;;5.90;58.50;;;;;;5035953;28;20191;-53
2022/04/03 09:15:14;;;;;;;2.47;2.00;;;6.00;58.20;;;;;;5035993;28;20660;-52
2022/04/03 09:17:44;;;;;;;1.90;1.70;;;6.20;57.40;;;;;;5035980;28;20774;-53
2022/04/03 09:20:13;;;;;;;2.00;1.80;;;6.20;56.50;;;;;;5036153;28;20243;-53
2022/04/03 09:22:42;;;;;;;2.60;1.90;;;6.20;56.10;;;;;;5035656;28;20208;-53
2022/04/03 09:25:11;;;;;;;1.95;1.45;;;6.10;56.10;;;;;;5035924;28;20208;-53
2022/04/03 09:27:49;;;;;;;2.10;1.90;;;6.00;56.20;;;;;;5035412;28;20232;-53
2022/04/03 09:30:18;;;;;;;2.20;1.70;;;6.00;56.40;;;;;;5035964;28;20296;-53
2022/04/03 09:32:49;;;;;;;4.88;2.30;;;6.00;56.50;;;;;;5036725;28;20565;-53
2022/04/03 09:35:16;;;;;;;4.13;2.10;;;6.30;56.70;;;;;;5036071;28;20203;-52
2022/04/03 09:38:09;;;;;;;2.20;1.80;;;6.50;56.20;;;;;;5035270;28;20231;-52
2022/04/03 09:40:38;;;;;;;3.13;1.73;;;6.80;55.10;;;;;;5035248;28;20677;-52
2022/04/03 09:43:19;;;;;;;4.13;2.10;;;7.00;54.60;;;;;;5035338;28;20208;-52
2022/04/03 09:45:52;;;;;;;2.33;2.13;;;7.20;54.00;;;;;;5035393;28;20208;-52
2022/04/03 09:48:24;;;;;;;2.78;1.90;;;7.30;53.60;;;;;;5036291;28;20193;-53
2022/04/03 09:51:04;;;;;;;5.60;1.83;;;7.30;53.00;;;;;;5035097;28;20228;-54
2022/04/03 09:53:41;;;;;;;3.67;1.73;;;7.30;52.90;;;;;;5035621;28;20188;-51
2022/04/03 09:56:09;;;;;;;2.55;1.77;;;7.40;52.90;;;;;;5035107;28;20242;-54
2022/04/03 09:58:55;;;;;;;3.50;1.70;;;7.50;52.10;;;;;;5035958;28;20208;-53
2022/04/03 10:01:26;;;;;;;2.10;1.65;;;7.70;51.10;;;;;;5035687;28;20197;-52
2022/04/03 10:03:54;;;;;;;2.03;1.88;;;7.70;50.20;;;;;;5035127;28;20664;-51
2022/04/03 10:06:23;;;;;;;3.00;1.50;;;7.70;50.40;;;;;;5035202;28;20229;-52
2022/04/03 10:08:51;;;;;;;2.60;1.65;;;7.80;50.40;;;;;;5035619;28;20266;-53
2022/04/03 10:11:19;;;;;;;3.22;1.70;;;7.80;50.20;;;;;;5035843;28;20227;-53
2022/04/03 10:13:46;;;;;;;1.88;1.60;;;7.70;50.30;;;;;;5035564;28;20206;-53
2022/04/03 10:16:14;;;;;;;4.00;2.13;;;7.60;50.50;;;;;;5035374;28;20708;-53
2022/04/03 10:18:43;;;;;;;2.40;2.17;;;7.40;50.80;;;;;;5035378;28;20674;-54
2022/04/03 10:21:15;;;;;;;2.88;1.90;;;7.20;51.20;;;;;;5035492;28;20206;-54
2022/04/03 10:23:44;;;;;;;2.03;1.83;;;7.10;51.90;;;;;;5035469;28;20539;-54
2022/04/03 10:26:14;;;;;;;2.40;1.67;;;7.10;52.30;;;;;;5034734;28;20223;-53
2022/04/03 10:28:45;;;;;;;2.00;1.75;;;7.10;52.70;;;;;;5035362;28;20311;-55
2022/04/03 10:31:17;;;;;;;4.20;1.88;;;7.10;52.90;;;;;;5035257;28;20233;-54
2022/04/03 10:33:49;;;;;;;2.03;1.50;;;7.30;53.20;;;;;;5034561;28;20203;-54
2022/04/03 10:36:25;;;;;;;5.50;1.75;;;7.50;52.80;;;;;;5034279;28;20229;-53
2022/04/03 10:39:00;;;;;;;3.92;1.50;;;7.50;52.50;;;;;;5034739;28;20188;-54
2022/04/03 10:41:29;;;;;;;3.95;1.60;;;7.50;52.70;;;;;;5034679;28;20200;-53
2022/04/03 10:44:14;;;;;;;3.60;1.70;;;7.30;53.10;;;;;;5034403;28;20203;-53
2022/04/03 10:47:23;;;;;;;3.67;1.75;;;7.20;53.90;;;;;;5034290;28;20219;-54
2022/04/03 10:50:00;;;;;;;2.88;1.90;;;7.00;54.90;;;;;;5018972;28;20224;-53
2022/04/03 10:52:43;;;;;;;2.72;1.90;;;6.70;56.20;;;;;;5034468;28;20231;-53
2022/04/03 10:55:15;;;;;;;3.10;1.80;;;6.70;57.10;;;;;;5033141;28;20207;-53
2022/04/03 10:57:43;;;;;;;4.13;1.55;;;6.70;57.50;;;;;;5034252;28;20287;-53
2022/04/03 11:00:39;;;;;;;4.75;2.10;;;6.80;57.40;;;;;;5034209;28;20585;-52
2022/04/03 11:03:39;;;;;;;4.80;2.00;;;6.70;57.40;;;;;;5036393;28;20626;-52
2022/04/03 11:06:34;;;;;;;3.50;1.90;;;6.60;57.90;;;;;;4974911;28;20306;-52
2022/04/03 11:09:06;;;;;;;3.92;2.08;;;6.70;58.30;;;;;;4973633;28;20220;-52
2022/04/03 11:11:37;;;;;;;2.22;1.60;;;6.90;58.70;;;;;;5013516;28;20232;-53
2022/04/03 11:14:07;;;;;;;1.75;1.50;;;6.90;58.20;;;;;;5034105;28;20193;-53
2022/04/03 11:16:52;;;;;;;2.00;1.50;;;7.00;57.90;;;;;;5033932;28;20599;-52
2022/04/03 11:19:36;;;;;;;5.22;1.30;;;7.10;57.70;;;;;;5033800;28;20196;-54
2022/04/03 11:22:06;;;;;;;5.40;2.10;;;7.10;57.70;;;;;;5033714;28;20204;-52
2022/04/03 11:24:37;;;;;;;1.88;1.63;;;7.20;57.70;;;;;;5033665;28;20209;-53
2022/04/03 11:27:05;;;;;;;3.33;1.70;;;7.20;57.40;;;;;;5033383;28;20232;-53
2022/04/03 11:29:33;;;;;;;5.45;2.00;;;7.20;57.10;;;;;;5032996;28;20617;-52
2022/04/03 11:32:03;;;;;;;2.15;1.52;;;7.40;56.90;;;;;;5033111;28;20208;-52
2022/04/03 11:34:31;;;;;;;2.95;1.80;;;7.60;55.70;;;;;;5033158;28;20193;-52
2022/04/03 11:36:58;;;;;;;2.17;1.98;;;7.80;55.10;;;;;;5033164;28;20350;-52
2022/04/03 11:39:36;;;;;;;1.88;1.35;;;7.90;54.80;;;;;;5033203;28;20216;-53
2022/04/03 11:42:09;;;;;;;3.05;1.60;;;7.90;54.50;;;;;;5033115;28;20187;-52
2022/04/03 11:44:37;;;;;;;2.90;1.85;;;7.70;54.80;;;;;;5033558;28;20193;-52
2022/04/03 11:47:06;;;;;;;2.30;1.92;;;7.60;55.40;;;;;;5033314;28;20711;-53
2022/04/03 11:49:36;;;;;;;3.10;1.90;;;7.70;55.90;;;;;;5033008;28;20207;-52
2022/04/03 11:52:08;;;;;;;1.98;1.70;;;8.00;55.50;;;;;;5033607;28;20642;-53
2022/04/03 11:54:39;;;;;;;3.08;2.25;;;8.10;55.00;;;;;;5033344;28;20294;-53
2022/04/03 11:57:07;;;;;;;5.13;1.60;;;8.10;54.60;;;;;;5033118;28;20225;-55
2022/04/03 11:59:35;;;;;;;1.50;1.40;;;8.00;54.50;;;;;;5033287;28;20199;-53
2022/04/03 12:02:11;;;;;;;3.42;1.25;;;7.80;54.60;;;;;;5033571;28;20253;-52
2022/04/03 12:04:41;;;;;;;7.07;1.60;;;7.50;55.00;;;;;;5033244;28;20185;-53
2022/04/03 12:07:13;;;;;;;3.47;1.70;;;7.30;55.30;;;;;;5032849;28;20229;-52
2022/04/03 12:09:42;;;;;;;2.50;1.50;;;7.30;55.70;;;;;;5033722;28;20189;-54
2022/04/03 12:12:10;;;;;;;2.30;1.48;;;7.20;56.10;;;;;;5032888;28;20681;-52
2022/04/03 12:14:40;;;;;;;2.95;2.13;;;7.30;56.40;;;;;;5032954;28;20211;-53
2022/04/03 12:17:09;;;;;;;2.70;1.85;;;7.40;56.50;;;;;;5032980;28;20320;-53
2022/04/03 12:19:37;;;;;;;2.88;2.55;;;7.60;56.20;;;;;;5032725;28;20688;-53
2022/04/03 12:22:08;;;;;;;3.05;2.00;;;7.70;56.10;;;;;;5032785;28;20278;-52
2022/04/03 12:24:36;;;;;;;2.05;1.80;;;7.70;56.20;;;;;;5033004;28;20253;-53
2022/04/03 12:27:12;;;;;;;4.90;1.58;;;7.60;56.30;;;;;;5048912;22;20343;-54
2022/04/03 12:29:41;;;;;;;2.08;1.58;;;7.60;56.70;;;;;;5013628;28;20543;-52
2022/04/03 12:32:12;;;;;;;3.65;2.10;;;7.50;56.90;;;;;;5017562;28;20210;-52
2022/04/03 12:34:41;;;;;;;4.95;2.10;;;7.50;57.40;;;;;;5017537;28;20188;-51
2022/04/03 12:37:10;;;;;;;5.25;2.40;;;7.40;58.00;;;;;;5016742;28;20209;-54
2022/04/03 12:39:42;;;;;;;4.50;1.90;;;7.20;59.40;;;;;;5016906;28;20201;-52
2022/04/03 12:42:17;;;;;;;5.93;2.80;;;7.00;62.40;;;;;;5016757;28;20196;-53
2022/04/03 12:44:46;;;;;;;2.95;2.03;;;7.00;66.20;;;;;;5016526;28;20208;-53
2022/04/03 12:47:15;;;;;;;2.70;1.70;;;6.90;69.30;;;;;;5016910;28;20225;-52
2022/04/03 12:49:46;;;;;;;1.92;1.50;;;6.80;71.80;;;;;;5016810;28;20217;-54
2022/04/03 12:52:20;;;;;;;2.65;1.90;;;6.60;75.00;;;;;;5017238;28;20190;-53
2022/04/03 12:54:47;;;;;;;3.03;1.20;;;6.40;78.20;;;;;;5017092;28;20657;-52
2022/04/03 13:00:17;;;;;;;1.65;1.42;;;6.20;83.20;;;;;;5017580;28;20652;-52
2022/04/03 13:02:45;;;;;;;2.78;1.25;;;6.30;83.20;;;;;;5017316;28;20238;-53
2022/04/03 13:05:16;;;;;;;2.40;1.48;;;6.40;82.50;;;;;;5016929;28;20233;-52
2022/04/03 13:07:43;;;;;;;5.40;2.45;;;6.50;81.90;;;;;;5016750;28;20220;-54